Hawi, HI (96719)

9:18 AM HST on January 30, 2015 (GMT -1000)
Pa Ka Makani Farm | Change Station
CLOSE
Current Station
Personal Weather Station
Location: Kapaau, HI
Elevation: 285 ft
Nearby Weather Stations

Elev 285 ft 20.25 °N, 155.81 °W | Updated 3 minutes ago

Clear
Clear
75.9 °F
Feels Like 78 °F
N
2.0
Wind Variable Wind from NNE

Today
High -- | Low -- °F
--% Chance of Precip.
Yesterday
High -- | Low -- °F
Precip. -- in
6:59 AM 6:13 PM
Waxing Gibbous, 84% visible
Pressure 29.96 in
Visibility 10.0 miles
Clouds Clear
Heat Index 78 °F
Dew Point 65 °F
Humidity 69%
Rainfall 0.00 in
Snow Depth Not available.
UV 2 out of 12
Pollen Not available.
Air Quality Not available.
Flu Activity Not available.
METAR PHKO 301853Z 00000KT 10SM CLR 26/19 A2996 RMK AO2 SLP144 T02560189

More Conditions Fewer Conditions

Pressure 29.96 in
Visibility 10.0 miles
Clouds Clear
Heat Index 78 °F
Dew Point 65 °F
Humidity 69%
Rainfall 0.00 in
Snow Depth Not available.
UV 2 out of 12
Pollen Not available.
Air Quality Not available.
Flu Activity Not available.
METAR PHKO 301853Z 00000KT 10SM CLR 26/19 A2996 RMK AO2 SLP144 T02560189

More Conditions Fewer Conditions

10-Day Weather Forecast

Almanac

Astronomy

Jan. 30, 2015 Rise Set
Actual Time
Civil Twilight
Nautical Twilight
Astronomical Twilight
Moon
Length of Visible Light
Length of Day
Tomorrow will be .
, % of the Moon is Illuminated

Today's Extremes

State Highs State Lows

Community

WunderPhotos

Upload Photos

1,791,868 photos uploaded!

WunderBlogs® & News

Nearby

Air Quality

  Air Quality AQ Index Pollutant
Not available.

Snow Depth

Station Depth Elevation

Earthquake Activity

City Distance Mag. Time & Date
Minimum magnitude displayed is 2.5.

Coastal Water Temperatures

Place Temperature

Nearby Weather Stations